Time;durP1;ratioP1;P1;durP2;ratioP2;P2;SDS_P1;SDS_P2;PMS_P1;PMS_P2;Temp;Humidity;BMP_temperature;BMP_pressure;BME280_temperature;BME280_humidity;BME280_pressure;Samples;Min_cycle;Max_cycle;Signal;HPM_P1;HPM_P2
2022/09/30 00:01:45;;;;;;;;;;;8.70;99.90;;;;;;5003707;28;19926;-73
2022/09/30 00:04:18;;;;;;;;;;;8.70;99.90;;;;;;4989849;28;19926;-72
2022/09/30 00:06:51;;;;;;;;;;;8.70;99.90;;;;;;4988768;28;20402;-72
2022/09/30 00:09:22;;;;;;;;;;;8.70;99.90;;;;;;4977437;28;19926;-72
2022/09/30 00:11:54;;;;;;;;;;;8.60;99.90;;;;;;4989426;28;19929;-73
2022/09/30 00:14:25;;;;;;;;;;;8.60;99.90;;;;;;4990177;28;19926;-72
2022/09/30 00:16:58;;;;;;;;;;;8.60;99.90;;;;;;5004486;28;19989;-72
2022/09/30 00:19:29;;;;;;;;;;;8.60;99.90;;;;;;4988057;28;19929;-73
2022/09/30 00:22:01;;;;;;;;;;;8.60;99.90;;;;;;4990341;28;19929;-72
2022/09/30 00:24:33;;;;;;;;;;;8.60;99.90;;;;;;5004294;28;19926;-72
2022/09/30 00:27:04;;;;;;;;;;;8.60;99.90;;;;;;4987656;28;20030;-71
2022/09/30 00:29:36;;;;;;;;;;;8.60;99.90;;;;;;4989259;28;19930;-72
2022/09/30 00:32:07;;;;;;;;;;;8.50;99.90;;;;;;5004432;28;19994;-72
2022/09/30 00:34:39;;;;;;;;;;;8.50;99.90;;;;;;5003394;28;19925;-72
2022/09/30 00:37:13;;;;;;;;;;;8.50;99.90;;;;;;4987952;28;19933;-73
2022/09/30 00:39:45;;;;;;;;;;;8.40;99.90;;;;;;4989152;28;19925;-72
2022/09/30 00:42:18;;;;;;;;;;;8.40;99.90;;;;;;4991599;28;19925;-72
2022/09/30 00:44:54;;;;;;;;;;;8.40;99.90;;;;;;4999087;28;19930;-73
2022/09/30 00:47:27;;;;;;;;;;;8.40;99.90;;;;;;5004340;28;19942;-73
2022/09/30 00:50:01;;;;;;;;;;;8.30;99.90;;;;;;4990096;28;19933;-72
2022/09/30 00:52:32;;;;;;;;;;;8.20;99.90;;;;;;4990015;28;19929;-72
2022/09/30 00:55:00;;;;;;;;;;;8.20;99.90;;;;;;4973468;28;19925;-73
2022/09/30 00:57:32;;;;;;;;;;;8.10;99.90;;;;;;4989781;28;19926;-71
2022/09/30 01:00:04;;;;;;;;;;;8.00;99.90;;;;;;4987906;28;20224;-73
2022/09/30 01:02:36;;;;;;;;;;;7.80;99.90;;;;;;4975988;28;19954;-72
2022/09/30 01:05:08;;;;;;;;;;;7.80;99.90;;;;;;4989251;28;20311;-73
2022/09/30 01:07:39;;;;;;;;;;;7.80;99.90;;;;;;4986010;28;19930;-73
2022/09/30 01:10:06;;;;;;;;;;;7.80;99.90;;;;;;4988602;28;19985;-72
2022/09/30 01:12:33;;;;;;;;;;;7.80;99.90;;;;;;5003604;28;20549;-72
2022/09/30 01:15:05;;;;;;;;;;;7.80;99.90;;;;;;4972075;28;19981;-73
2022/09/30 01:17:37;;;;;;;;;;;7.80;99.90;;;;;;4986853;28;19981;-73
2022/09/30 01:20:24;;;;;;;;;;;7.80;99.90;;;;;;5004033;28;19934;-73
2022/09/30 01:23:11;;;;;;;;;;;7.80;99.90;;;;;;4974334;28;19941;-73
2022/09/30 01:26:01;;;;;;;;;;;7.80;99.90;;;;;;4975439;28;19926;-72
2022/09/30 01:28:51;;;;;;;;;;;7.80;99.90;;;;;;4965854;28;19925;-72
2022/09/30 01:31:49;;;;;;;;;;;7.90;99.90;;;;;;4989396;28;19925;-72
2022/09/30 01:34:24;;;;;;;;;;;7.80;99.90;;;;;;4980176;28;19933;-72
2022/09/30 01:36:55;;;;;;;;;;;7.80;99.90;;;;;;4986515;28;19925;-72
2022/09/30 01:39:39;;;;;;;;;;;7.90;99.90;;;;;;4985275;28;20387;-72
2022/09/30 01:42:12;;;;;;;;;;;7.90;99.90;;;;;;4970995;28;19926;-73
2022/09/30 01:45:06;;;;;;;;;;;7.90;99.90;;;;;;5017881;28;19926;-72
2022/09/30 01:47:50;;;;;;;;;;;7.90;99.90;;;;;;5000864;28;19997;-73
2022/09/30 01:50:33;;;;;;;;;;;7.90;99.90;;;;;;4984072;28;19933;-73
2022/09/30 01:53:17;;;;;;;;;;;7.80;99.90;;;;;;4986292;28;19926;-73
2022/09/30 01:55:54;;;;;;;;;;;7.80;99.90;;;;;;4990337;28;20343;-72
2022/09/30 01:58:36;;;;;;;;;;;7.80;99.90;;;;;;4985470;28;19936;-73
2022/09/30 02:01:10;;;;;;;;;;;7.70;99.90;;;;;;4988376;28;19934;-73
2022/09/30 02:03:41;;;;;;;;;;;7.80;99.90;;;;;;5007528;28;19930;-72
2022/09/30 02:06:14;;;;;;;;;;;7.80;99.90;;;;;;4992019;28;19933;-71
2022/09/30 02:08:52;;;;;;;;;;;7.90;99.90;;;;;;4997624;28;19930;-72
2022/09/30 02:11:23;;;;;;;;;;;7.90;99.90;;;;;;5005643;28;19930;-72
2022/09/30 02:14:01;;;;;;;;;;;7.90;99.90;;;;;;4977183;28;19934;-73
2022/09/30 02:16:38;;;;;;;;;;;7.90;99.90;;;;;;4983809;28;19968;-73
2022/09/30 02:19:30;;;;;;;;;;;7.90;99.90;;;;;;4991800;28;19963;-72
2022/09/30 02:21:59;;;;;;;;;;;7.90;99.90;;;;;;4980497;28;20332;-73
2022/09/30 02:24:35;;;;;;;;;;;7.80;99.90;;;;;;5007443;28;19930;-73
2022/09/30 02:27:04;;;;;;;;;;;7.90;99.90;;;;;;4989330;28;19971;-72
2022/09/30 02:29:39;;;;;;;;;;;7.90;99.90;;;;;;5008406;28;19925;-72
2022/09/30 02:32:12;;;;;;;;;;;7.90;99.90;;;;;;4978327;28;19926;-72
2022/09/30 02:34:46;;;;;;;;;;;7.90;99.90;;;;;;4974043;28;19953;-73
2022/09/30 02:37:24;;;;;;;;;;;7.90;99.90;;;;;;4977899;28;19985;-73
2022/09/30 02:40:09;;;;;;;;;;;7.90;99.90;;;;;;4991471;28;20410;-73
2022/09/30 02:42:42;;;;;;;;;;;7.90;99.90;;;;;;4992238;28;19944;-73
2022/09/30 02:45:20;;;;;;;;;;;8.00;99.90;;;;;;5008217;28;19937;-73
2022/09/30 02:48:09;;;;;;;;;;;8.00;99.90;;;;;;4989465;28;19934;-73
2022/09/30 02:50:47;;;;;;;;;;;8.00;99.90;;;;;;4993749;28;20323;-72
2022/09/30 02:53:35;;;;;;;;;;;8.00;99.90;;;;;;5007071;28;19986;-73
2022/09/30 02:56:06;;;;;;;;;;;8.00;99.90;;;;;;4978487;28;19976;-73
2022/09/30 02:58:39;;;;;;;;;;;8.00;99.90;;;;;;5004081;28;19929;-73
2022/09/30 03:01:14;;;;;;;;;;;8.00;99.90;;;;;;5008686;28;20356;-73
2022/09/30 03:03:51;;;;;;;;;;;7.90;99.90;;;;;;4977360;28;20327;-72
2022/09/30 03:06:23;;;;;;;;;;;7.90;99.90;;;;;;4988668;28;19986;-73
2022/09/30 03:08:53;;;;;;;;;;;7.90;99.90;;;;;;4989623;28;19937;-72
2022/09/30 03:11:26;;;;;;;;;;;7.90;99.90;;;;;;4991678;28;19962;-72
2022/09/30 03:14:19;;;;;;;;;;;7.90;99.90;;;;;;5013960;28;19926;-72
2022/09/30 03:16:50;;;;;;;;;;;7.90;99.90;;;;;;4973262;28;19989;-72
2022/09/30 03:19:32;;;;;;;;;;;7.90;99.90;;;;;;4989941;28;20335;-73
2022/09/30 03:22:04;;;;;;;;;;;7.90;99.90;;;;;;5004609;28;19934;-73
2022/09/30 03:24:51;;;;;;;;;;;7.90;99.90;;;;;;4995385;28;20284;-73
2022/09/30 03:27:30;;;;;;;;;;;7.90;99.90;;;;;;4969782;28;19930;-72
2022/09/30 03:30:02;;;;;;;;;;;7.90;99.90;;;;;;4974792;28;19938;-72
2022/09/30 03:32:34;;;;;;;;;;;7.90;99.90;;;;;;4992497;28;19933;-72
2022/09/30 03:35:15;;;;;;;;;;;7.90;99.90;;;;;;4976152;28;19926;-73
2022/09/30 03:37:54;;;;;;;;;;;7.90;99.90;;;;;;4989970;28;19996;-73
2022/09/30 03:40:34;;;;;;;;;;;7.90;99.90;;;;;;5010001;28;19934;-73
2022/09/30 03:43:11;;;;;;;;;;;7.90;99.90;;;;;;4986940;28;19930;-73
2022/09/30 03:45:40;;;;;;;;;;;7.90;99.90;;;;;;5008690;28;19929;-73
2022/09/30 03:48:13;;;;;;;;;;;7.90;99.90;;;;;;4984651;28;19989;-72
2022/09/30 03:50:44;;;;;;;;;;;7.90;99.90;;;;;;5005021;28;19926;-73
2022/09/30 03:53:16;;;;;;;;;;;7.80;99.90;;;;;;4988644;28;19929;-73
2022/09/30 03:55:49;;;;;;;;;;;7.80;99.90;;;;;;4992215;28;19930;-72
2022/09/30 03:58:17;;;;;;;;;;;7.70;99.90;;;;;;5001477;28;20455;-72
2022/09/30 04:00:51;;;;;;;;;;;7.70;99.90;;;;;;4993689;28;19930;-73
2022/09/30 04:03:23;;;;;;;;;;;7.60;99.90;;;;;;5002539;28;19926;-73
2022/09/30 04:05:54;;;;;;;;;;;7.60;99.90;;;;;;4989494;28;20451;-71
2022/09/30 04:08:26;;;;;;;;;;;7.60;99.90;;;;;;4988799;28;19926;-72
2022/09/30 04:10:58;;;;;;;;;;;7.60;99.90;;;;;;5010084;28;19930;-73
2022/09/30 04:13:30;;;;;;;;;;;7.60;99.90;;;;;;4989153;28;19926;-73
2022/09/30 04:16:01;;;;;;;;;;;7.60;99.90;;;;;;5021328;28;20399;-73
2022/09/30 04:18:37;;;;;;;;;;;7.70;99.90;;;;;;4986226;28;20454;-72
2022/09/30 04:21:09;;;;;;;;;;;7.70;99.90;;;;;;5040072;23;19928;-74
2022/09/30 04:23:41;;;;;;;;;;;7.60;99.90;;;;;;5015697;28;19933;-74
2022/09/30 04:26:10;;;;;;;;;;;7.60;99.90;;;;;;5048245;28;19983;-75
2022/09/30 04:28:42;;;;;;;;;;;7.60;99.90;;;;;;5034470;28;19929;-76
2022/09/30 04:31:10;;;;;;;;;;;7.60;99.90;;;;;;5050567;28;19979;-75
2022/09/30 04:33:37;;;;;;;;;;;7.60;99.90;;;;;;5059444;28;19970;-74
2022/09/30 04:36:09;;;;;;;;;;;7.70;99.90;;;;;;5051339;28;19978;-74
2022/09/30 04:38:35;;;;;;;;;;;7.70;99.90;;;;;;5051665;28;20012;-74
2022/09/30 04:41:04;;;;;;;;;;;7.70;99.90;;;;;;5048411;28;19951;-73
2022/09/30 04:43:30;;;;;;;;;;;7.70;99.90;;;;;;5065919;28;19925;-75
2022/09/30 04:46:02;;;;;;;;;;;7.60;99.90;;;;;;5057330;28;19978;-74
2022/09/30 04:48:30;;;;;;;;;;;7.60;99.90;;;;;;5045926;28;19932;-75
2022/09/30 04:50:58;;;;;;;;;;;7.70;99.90;;;;;;5064636;28;19932;-74
2022/09/30 04:53:30;;;;;;;;;;;7.70;99.90;;;;;;5063651;28;19925;-76
2022/09/30 04:55:58;;;;;;;;;;;7.70;99.90;;;;;;5057667;28;19977;-73
2022/09/30 04:58:31;;;;;;;;;;;7.70;99.90;;;;;;5034840;28;20045;-74
2022/09/30 05:01:05;;;;;;;;;;;7.70;99.90;;;;;;5032783;28;19928;-74
2022/09/30 05:03:32;;;;;;;;;;;7.80;99.90;;;;;;5046989;28;20359;-74
2022/09/30 05:06:05;;;;;;;;;;;7.80;99.90;;;;;;5060892;28;20418;-75
2022/09/30 05:08:36;;;;;;;;;;;7.80;99.90;;;;;;5063571;28;19977;-74
2022/09/30 05:11:09;;;;;;;;;;;7.80;99.90;;;;;;5042142;28;19980;-74
2022/09/30 05:13:41;;;;;;;;;;;7.80;99.90;;;;;;5046219;28;19925;-73
2022/09/30 05:16:13;;;;;;;;;;;7.80;99.90;;;;;;5044068;28;20383;-74
2022/09/30 05:18:45;;;;;;;;;;;7.90;99.90;;;;;;5041801;28;20015;-73
2022/09/30 05:21:13;;;;;;;;;;;7.80;99.90;;;;;;5052905;28;19978;-74
2022/09/30 05:23:45;;;;;;;;;;;7.80;99.90;;;;;;5033816;28;20368;-74
2022/09/30 05:26:12;;;;;;;;;;;7.90;99.90;;;;;;5047901;28;19929;-74
2022/09/30 05:28:43;;;;;;;;;;;7.80;99.90;;;;;;5045046;28;19924;-75
2022/09/30 05:31:15;;;;;;;;;;;7.80;99.90;;;;;;5062816;28;19925;-74
2022/09/30 05:33:46;;;;;;;;;;;7.80;99.90;;;;;;5063564;28;19948;-74
2022/09/30 05:36:18;;;;;;;;;;;7.80;99.90;;;;;;5054998;28;19947;-74
2022/09/30 05:38:50;;;;;;;;;;;7.80;99.90;;;;;;5048102;28;20550;-75
2022/09/30 05:41:23;;;;;;;;;;;7.80;99.90;;;;;;5047183;28;19935;-74
2022/09/30 05:43:49;;;;;;;;;;;7.80;99.90;;;;;;5031827;28;19932;-74
2022/09/30 05:46:17;;;;;;;;;;;7.80;99.90;;;;;;5063979;28;20205;-75
2022/09/30 05:48:44;;;;;;;;;;;7.80;99.90;;;;;;5046796;28;19932;-75
2022/09/30 05:51:15;;;;;;;;;;;7.80;99.90;;;;;;5050556;28;20605;-76
2022/09/30 05:53:42;;;;;;;;;;;7.90;99.90;;;;;;5038497;28;19929;-75
2022/09/30 05:56:13;;;;;;;;;;;7.90;99.90;;;;;;5066405;28;19931;-75
2022/09/30 05:58:40;;;;;;;;;;;7.90;99.90;;;;;;5063262;28;19974;-76
2022/09/30 06:01:09;;;;;;;;;;;7.90;99.90;;;;;;5043967;28;19947;-74
2022/09/30 06:03:42;;;;;;;;;;;7.90;99.90;;;;;;5039357;28;19936;-75
2022/09/30 06:06:14;;;;;;;;;;;7.90;99.90;;;;;;5067040;28;20417;-75
2022/09/30 06:08:46;;;;;;;;;;;7.90;99.90;;;;;;5045839;28;20338;-74
2022/09/30 06:11:14;;;;;;;;;;;7.90;99.90;;;;;;5049065;28;19940;-73
2022/09/30 06:13:46;;;;;;;;;;;7.90;99.90;;;;;;5063622;28;19929;-75
2022/09/30 06:16:18;;;;;;;;;;;7.90;99.90;;;;;;5047913;28;19944;-75
2022/09/30 06:18:45;;;;;;;;;;;7.80;99.90;;;;;;5053303;28;19924;-74
2022/09/30 06:21:12;;;;;;;;;;;7.80;99.90;;;;;;5053572;28;19925;-74
2022/09/30 06:23:44;;;;;;;;;;;7.80;99.90;;;;;;5044432;28;19929;-74
2022/09/30 06:26:15;;;;;;;;;;;7.80;99.90;;;;;;5047562;28;20386;-75
2022/09/30 06:28:42;;;;;;;;;;;7.90;99.90;;;;;;5034996;28;20694;-72
2022/09/30 06:31:10;;;;;;;;;;;7.90;99.90;;;;;;5049057;28;20418;-73
2022/09/30 06:33:42;;;;;;;;;;;7.90;99.90;;;;;;5035916;28;20327;-73
2022/09/30 06:36:14;;;;;;;;;;;8.00;99.90;;;;;;5035961;28;19932;-74
2022/09/30 06:38:50;;;;;;;;;;;8.00;99.90;;;;;;5035716;28;20333;-71
2022/09/30 06:41:16;;;;;;;;;;;8.00;99.90;;;;;;5068083;28;20720;-75
2022/09/30 06:43:48;;;;;;;;;;;8.00;99.90;;;;;;5050224;28;20001;-73
2022/09/30 06:46:14;;;;;;;;;;;8.00;99.90;;;;;;5045030;28;19979;-75
2022/09/30 06:48:41;;;;;;;;;;;8.00;99.90;;;;;;5054568;28;20048;-73
2022/09/30 06:51:13;;;;;;;;;;;8.00;99.90;;;;;;5054910;28;19931;-75
2022/09/30 06:53:45;;;;;;;;;;;8.00;99.90;;;;;;5051430;28;20287;-74
2022/09/30 06:56:11;;;;;;;;;;;8.00;99.90;;;;;;5035701;28;20387;-75
2022/09/30 06:58:39;;;;;;;;;;;8.00;99.90;;;;;;5050796;28;19936;-75
2022/09/30 07:01:14;;;;;;;;;;;8.00;99.90;;;;;;5046066;28;19939;-75
2022/09/30 07:03:43;;;;;;;;;;;8.00;99.90;;;;;;5050999;28;19929;-75
2022/09/30 07:06:15;;;;;;;;;;;8.00;99.90;;;;;;5050277;28;19936;-75
2022/09/30 07:08:47;;;;;;;;;;;8.00;99.90;;;;;;5062390;28;19929;-73
2022/09/30 07:11:14;;;;;;;;;;;8.10;99.90;;;;;;5045054;28;19978;-75
2022/09/30 07:13:46;;;;;;;;;;;8.10;99.90;;;;;;5047992;28;19928;-75
2022/09/30 07:16:18;;;;;;;;;;;8.10;99.90;;;;;;5062706;28;19928;-75
2022/09/30 07:18:50;;;;;;;;;;;8.10;99.90;;;;;;5051065;28;20395;-73
2022/09/30 07:21:17;;;;;;;;;;;8.20;99.90;;;;;;5048112;28;19929;-75
2022/09/30 07:23:48;;;;;;;;;;;8.10;99.90;;;;;;5049553;28;20353;-73
2022/09/30 07:26:16;;;;;;;;;;;8.20;99.90;;;;;;5042685;28;19925;-74
2022/09/30 07:28:43;;;;;;;;;;;8.20;99.90;;;;;;5043522;28;20445;-72
2022/09/30 07:31:16;;;;;;;;;;;8.30;99.90;;;;;;5044400;28;20413;-72
2022/09/30 07:33:51;;;;;;;;;;;8.30;99.90;;;;;;5034613;28;19985;-74
2022/09/30 07:36:28;;;;;;;;;;;8.40;99.90;;;;;;5045055;28;19936;-74
2022/09/30 07:39:04;;;;;;;;;;;8.40;99.90;;;;;;5049847;28;19983;-76
2022/09/30 07:41:37;;;;;;;;;;;8.50;99.90;;;;;;5032735;28;19951;-74
2022/09/30 07:44:12;;;;;;;;;;;8.50;99.90;;;;;;5026155;28;19985;-75
2022/09/30 07:46:43;;;;;;;;;;;8.50;99.90;;;;;;5032364;28;19932;-75
2022/09/30 07:49:22;;;;;;;;;;;8.50;99.90;;;;;;5050438;28;20352;-75
2022/09/30 07:51:50;;;;;;;;;;;8.50;99.90;;;;;;5047185;28;20001;-73
2022/09/30 07:54:24;;;;;;;;;;;8.50;99.90;;;;;;5031004;28;20566;-75
2022/09/30 07:56:56;;;;;;;;;;;8.50;99.90;;;;;;5052023;28;19962;-76
2022/09/30 07:59:23;;;;;;;;;;;8.60;99.90;;;;;;5048891;28;20393;-75
2022/09/30 08:01:49;;;;;;;;;;;8.60;99.90;;;;;;5044195;28;19933;-74
2022/09/30 08:04:21;;;;;;;;;;;8.60;99.90;;;;;;5048171;28;20340;-75
2022/09/30 08:06:55;;;;;;;;;;;8.70;99.90;;;;;;5042457;28;20638;-74
2022/09/30 08:09:27;;;;;;;;;;;8.70;99.90;;;;;;5048566;28;19990;-75
2022/09/30 08:12:00;;;;;;;;;;;8.70;99.90;;;;;;5034671;28;19932;-75
2022/09/30 08:14:32;;;;;;;;;;;8.80;99.90;;;;;;5050247;28;19974;-72
2022/09/30 08:17:04;;;;;;;;;;;8.80;99.90;;;;;;5031428;28;19979;-73
2022/09/30 08:19:35;;;;;;;;;;;8.80;99.90;;;;;;5063810;28;19982;-75
2022/09/30 08:22:09;;;;;;;;;;;8.90;99.90;;;;;;5050589;28;19978;-74
2022/09/30 08:24:36;;;;;;;;;;;9.00;99.90;;;;;;5044955;28;20318;-74
2022/09/30 08:27:07;;;;;;;;;;;9.10;99.90;;;;;;5066050;28;20338;-75
2022/09/30 08:29:34;;;;;;;;;;;9.20;99.90;;;;;;5047251;28;20608;-74
2022/09/30 08:32:05;;;;;;;;;;;9.20;99.90;;;;;;5066003;28;20344;-76
2022/09/30 08:34:37;;;;;;;;;;;9.20;99.90;;;;;;5059503;28;19924;-74
2022/09/30 08:37:09;;;;;;;;;;;9.30;99.90;;;;;;5049807;28;19971;-76
2022/09/30 08:39:42;;;;;;;;;;;9.30;99.90;;;;;;5052284;28;19928;-76
2022/09/30 08:42:08;;;;;;;;;;;9.30;99.90;;;;;;5052281;28;19960;-74
2022/09/30 08:44:42;;;;;;;;;;;9.30;99.90;;;;;;5034795;28;19939;-76
2022/09/30 08:47:40;;;;;;;;;;;9.30;99.90;;;;;;5033944;28;19929;-76
2022/09/30 08:50:19;;;;;;;;;;;9.40;99.90;;;;;;5021871;28;19932;-76
2022/09/30 08:52:51;;;;;;;;;;;9.40;99.90;;;;;;5050178;28;19978;-77
2022/09/30 08:55:28;;;;;;;;;;;9.50;99.90;;;;;;5048252;28;20442;-72
2022/09/30 08:57:55;;;;;;;;;;;9.50;99.90;;;;;;5045573;28;19976;-76
2022/09/30 09:00:26;;;;;;;;;;;9.50;99.90;;;;;;5045279;28;20002;-73
2022/09/30 09:02:54;;;;;;;;;;;9.50;99.90;;;;;;5063947;28;19924;-75
2022/09/30 09:05:35;;;;;;;;;;;9.50;99.90;;;;;;5032312;28;19932;-75
2022/09/30 09:08:05;;;;;;;;;;;9.60;99.90;;;;;;5049737;28;19924;-75
2022/09/30 09:10:43;;;;;;;;;;;9.60;99.90;;;;;;5044557;28;19928;-73
2022/09/30 09:13:15;;;;;;;;;;;9.60;99.90;;;;;;5059555;28;19932;-75
2022/09/30 09:15:46;;;;;;;;;;;9.60;99.90;;;;;;5046288;28;19925;-74
2022/09/30 09:18:38;;;;;;;;;;;9.70;99.90;;;;;;5046654;28;19982;-76
2022/09/30 09:21:13;;;;;;;;;;;9.70;99.90;;;;;;5044399;28;20307;-75
2022/09/30 09:23:45;;;;;;;;;;;9.70;99.90;;;;;;5064115;28;19932;-75
2022/09/30 09:26:17;;;;;;;;;;;9.80;99.90;;;;;;5040930;28;19954;-73
2022/09/30 09:28:58;;;;;;;;;;;9.80;99.90;;;;;;5031712;28;19932;-74
2022/09/30 09:31:25;;;;;;;;;;;9.90;99.90;;;;;;5049497;28;20357;-75
2022/09/30 09:33:59;;;;;;;;;;;10.00;99.90;;;;;;5046459;28;20651;-75
2022/09/30 09:36:35;;;;;;;;;;;10.10;99.90;;;;;;5061381;28;19929;-76
2022/09/30 09:39:14;;;;;;;;;;;10.10;99.90;;;;;;5067164;28;19925;-74
2022/09/30 09:41:58;;;;;;;;;;;10.30;99.90;;;;;;5047244;28;20345;-75
2022/09/30 09:44:37;;;;;;;;;;;10.30;99.90;;;;;;5064790;28;19950;-73
2022/09/30 09:47:16;;;;;;;;;;;10.50;99.90;;;;;;5048155;28;19931;-74
2022/09/30 09:49:43;;;;;;;;;;;10.50;99.90;;;;;;5066744;28;19955;-73
2022/09/30 09:52:36;;;;;;;;;;;10.50;99.90;;;;;;5060786;28;19928;-73
2022/09/30 09:55:09;;;;;;;;;;;10.50;99.90;;;;;;5039953;28;20387;-74
2022/09/30 09:57:40;;;;;;;;;;;10.50;99.90;;;;;;5053924;28;19994;-74
2022/09/30 10:03:14;;;;;;;;;;;10.60;99.90;;;;;;5064423;28;20552;-74
2022/09/30 10:06:06;;;;;;;;;;;10.60;99.90;;;;;;5061843;28;19973;-73
2022/09/30 10:08:51;;;;;;;;;;;10.70;99.90;;;;;;5042452;28;19928;-75
2022/09/30 10:11:18;;;;;;;;;;;10.70;99.90;;;;;;5055369;28;19929;-75
2022/09/30 10:13:45;;;;;;;;;;;10.90;99.90;;;;;;5039148;28;19928;-73
2022/09/30 10:16:26;;;;;;;;;;;10.90;99.90;;;;;;5046035;28;20426;-73
2022/09/30 10:18:58;;;;;;;;;;;11.00;99.90;;;;;;5041399;28;19925;-74
2022/09/30 10:21:30;;;;;;;;;;;11.10;99.90;;;;;;5041654;28;19929;-75
2022/09/30 10:24:17;;;;;;;;;;;11.00;99.90;;;;;;5033164;28;20456;-74
2022/09/30 10:26:48;;;;;;;;;;;11.00;99.90;;;;;;5052269;28;20346;-74
2022/09/30 10:29:26;;;;;;;;;;;11.00;99.90;;;;;;5051262;28;20000;-76
2022/09/30 10:31:59;;;;;;;;;;;11.00;99.90;;;;;;5066091;28;20483;-74
2022/09/30 10:34:37;;;;;;;;;;;11.00;99.90;;;;;;5045948;28;20383;-74
2022/09/30 10:37:15;;;;;;;;;;;11.00;99.90;;;;;;5051687;28;19948;-76
2022/09/30 10:40:05;;;;;;;;;;;11.10;99.90;;;;;;5043465;28;19929;-74
2022/09/30 10:42:39;;;;;;;;;;;11.20;99.90;;;;;;5069507;28;19989;-75
2022/09/30 10:45:08;;;;;;;;;;;11.20;99.90;;;;;;5049901;28;20349;-77
2022/09/30 10:47:45;;;;;;;;;;;11.20;99.90;;;;;;5048450;28;19928;-72
2022/09/30 10:50:19;;;;;;;;;;;11.20;99.90;;;;;;5055729;28;20353;-74
2022/09/30 10:52:57;;;;;;;;;;;11.30;99.90;;;;;;5047228;28;19929;-74
2022/09/30 10:55:32;;;;;;;;;;;11.40;99.90;;;;;;5048809;28;20294;-75
2022/09/30 10:58:22;;;;;;;;;;;11.50;99.90;;;;;;5063860;28;19933;-73
2022/09/30 11:00:58;;;;;;;;;;;11.50;99.90;;;;;;5039907;28;19932;-74
2022/09/30 11:03:29;;;;;;;;;;;11.60;99.90;;;;;;5054278;28;20033;-75
2022/09/30 11:05:55;;;;;;;;;;;11.70;99.90;;;;;;5054913;28;19970;-74
2022/09/30 11:08:27;;;;;;;;;;;11.70;99.90;;;;;;5054005;28;19951;-75
2022/09/30 11:11:12;;;;;;;;;;;11.80;99.90;;;;;;5044058;28;19925;-75
2022/09/30 11:13:42;;;;;;;;;;;11.80;99.90;;;;;;5060863;28;19975;-74
2022/09/30 11:16:13;;;;;;;;;;;11.90;99.90;;;;;;5066829;28;19928;-74
2022/09/30 11:18:58;;;;;;;;;;;12.10;99.90;;;;;;5036875;28;20321;-74
2022/09/30 11:21:35;;;;;;;;;;;12.10;99.90;;;;;;5047771;28;19954;-74
2022/09/30 11:24:07;;;;;;;;;;;12.10;99.90;;;;;;5070042;28;19978;-74
2022/09/30 11:26:44;;;;;;;;;;;12.20;99.90;;;;;;5048857;28;20024;-74
2022/09/30 11:29:28;;;;;;;;;;;12.20;99.90;;;;;;5047636;28;19994;-75
2022/09/30 11:32:07;;;;;;;;;;;12.30;99.90;;;;;;5049529;28;19981;-75
2022/09/30 11:34:45;;;;;;;;;;;12.40;99.90;;;;;;5036338;28;19928;-73
2022/09/30 11:37:15;;;;;;;;;;;12.30;99.90;;;;;;5045894;28;19955;-75
2022/09/30 11:39:56;;;;;;;;;;;12.30;99.90;;;;;;5063111;28;20043;-75
2022/09/30 11:42:46;;;;;;;;;;;12.20;99.90;;;;;;5049979;28;19974;-76
2022/09/30 11:45:34;;;;;;;;;;;12.20;99.90;;;;;;5031995;28;19936;-75
2022/09/30 11:48:16;;;;;;;;;;;12.20;99.90;;;;;;5069692;28;19928;-74
2022/09/30 11:50:54;;;;;;;;;;;12.20;99.90;;;;;;5069092;28;19924;-75
2022/09/30 11:53:55;;;;;;;;;;;12.30;99.90;;;;;;5057665;28;19974;-73
2022/09/30 11:56:31;;;;;;;;;;;12.30;99.90;;;;;;5028052;28;19959;-73
2022/09/30 11:59:05;;;;;;;;;;;12.40;99.90;;;;;;5038888;28;19925;-72
2022/09/30 12:01:40;;;;;;;;;;;12.40;99.90;;;;;;5052479;28;20394;-75
2022/09/30 12:04:12;;;;;;;;;;;12.50;99.90;;;;;;5064834;28;19929;-75
2022/09/30 12:06:53;;;;;;;;;;;12.60;99.90;;;;;;5041643;28;19925;-74
2022/09/30 12:09:29;;;;;;;;;;;12.70;99.90;;;;;;5049275;28;19924;-74
2022/09/30 12:12:06;;;;;;;;;;;12.80;99.90;;;;;;5053913;28;19955;-74
2022/09/30 12:14:41;;;;;;;;;;;13.00;99.90;;;;;;5050851;28;19955;-73
2022/09/30 12:17:19;;;;;;;;;;;13.10;99.90;;;;;;5067838;28;19929;-74
2022/09/30 12:19:54;;;;;;;;;;;13.20;99.90;;;;;;5051257;28;19929;-75
2022/09/30 12:22:27;;;;;;;;;;;13.20;99.90;;;;;;5047871;28;20317;-75
2022/09/30 12:25:00;;;;;;;;;;;13.20;99.90;;;;;;5055098;28;19929;-74
2022/09/30 12:27:39;;;;;;;;;;;13.20;99.90;;;;;;5045298;28;19978;-76
2022/09/30 12:30:16;;;;;;;;;;;13.20;99.90;;;;;;5064596;28;19924;-74
2022/09/30 12:32:51;;;;;;;;;;;13.20;99.90;;;;;;5049029;28;19955;-75
2022/09/30 12:35:29;;;;;;;;;;;13.10;99.90;;;;;;5036605;28;19925;-74
2022/09/30 12:38:16;;;;;;;;;;;12.90;99.90;;;;;;5051207;28;19978;-74
2022/09/30 12:40:57;;;;;;;;;;;12.90;99.90;;;;;;5062055;28;20002;-74
2022/09/30 12:43:46;;;;;;;;;;;12.80;99.90;;;;;;5047574;28;19933;-74
2022/09/30 12:46:18;;;;;;;;;;;12.90;99.90;;;;;;5049633;28;19929;-75
2022/09/30 12:48:47;;;;;;;;;;;12.90;99.90;;;;;;5058960;28;19979;-75
2022/09/30 12:51:22;;;;;;;;;;;13.00;99.90;;;;;;5054278;28;20390;-75
2022/09/30 12:53:51;;;;;;;;;;;13.00;99.90;;;;;;5040710;28;19931;-75
2022/09/30 12:56:25;;;;;;;;;;;13.00;99.90;;;;;;5047372;28;19931;-74
2022/09/30 12:58:59;;;;;;;;;;;13.00;99.90;;;;;;5051043;28;19978;-75
2022/09/30 13:01:27;;;;;;;;;;;13.00;99.90;;;;;;5063561;28;19960;-75
2022/09/30 13:03:59;;;;;;;;;;;13.00;99.90;;;;;;5036930;28;20415;-74
2022/09/30 13:06:46;;;;;;;;;;;13.00;99.90;;;;;;5049919;28;19974;-74
2022/09/30 13:09:21;;;;;;;;;;;13.00;99.90;;;;;;5036718;28;19956;-75
2022/09/30 13:11:54;;;;;;;;;;;13.00;99.90;;;;;;5049884;28;19990;-74
2022/09/30 13:14:35;;;;;;;;;;;13.00;99.90;;;;;;5050150;28;19926;-76
2022/09/30 13:17:07;;;;;;;;;;;13.00;99.90;;;;;;5029033;28;19994;-74
2022/09/30 13:19:43;;;;;;;;;;;12.90;99.90;;;;;;5044662;28;19928;-74
2022/09/30 13:22:28;;;;;;;;;;;12.90;99.90;;;;;;5019834;28;19929;-76
2022/09/30 13:27:33;;;;;;;;;;;12.70;99.90;;;;;;5016657;28;19929;-76
2022/09/30 13:30:01;;;;;;;;;;;12.70;99.90;;;;;;5027684;28;19925;-75
2022/09/30 13:32:36;;;;;;;;;;;12.70;99.90;;;;;;5032268;28;19933;-75
2022/09/30 13:35:28;;;;;;;;;;;12.70;99.90;;;;;;5040856;28;19926;-74
2022/09/30 13:38:12;;;;;;;;;;;12.60;99.90;;;;;;5041004;28;19924;-75
2022/09/30 13:40:44;;;;;;;;;;;12.60;99.90;;;;;;5039733;28;19979;-75
2022/09/30 13:43:13;;;;;;;;;;;12.80;99.90;;;;;;5027796;28;20414;-74
2022/09/30 13:45:47;;;;;;;;;;;12.70;99.90;;;;;;5032059;28;19963;-75
2022/09/30 13:48:28;;;;;;;;;;;12.80;99.90;;;;;;5024365;28;19979;-74
2022/09/30 13:51:02;;;;;;;;;;;12.80;99.90;;;;;;5041500;28;19929;-73
2022/09/30 13:53:50;;;;;;;;;;;12.90;99.90;;;;;;5010511;28;19925;-75
2022/09/30 13:56:27;;;;;;;;;;;12.90;99.90;;;;;;5044706;28;20352;-73
2022/09/30 13:59:17;;;;;;;;;;;13.00;99.90;;;;;;5029645;28;19952;-75
2022/09/30 14:02:01;;;;;;;;;;;13.10;99.90;;;;;;5013814;28;20002;-75
2022/09/30 14:04:34;;;;;;;;;;;13.00;99.90;;;;;;5028002;28;20032;-76
2022/09/30 14:07:25;;;;;;;;;;;13.20;99.90;;;;;;5028961;28;19925;-75
2022/09/30 14:10:02;;;;;;;;;;;13.20;99.90;;;;;;5030732;28;20016;-76
2022/09/30 14:12:44;;;;;;;;;;;13.20;99.90;;;;;;5036601;28;19924;-76
2022/09/30 14:15:22;;;;;;;;;;;13.20;99.90;;;;;;5027048;28;19925;-74
2022/09/30 14:18:17;;;;;;;;;;;13.30;99.90;;;;;;5015210;28;19925;-75
2022/09/30 14:20:55;;;;;;;;;;;13.40;99.90;;;;;;5028036;28;19925;-75
2022/09/30 14:23:27;;;;;;;;;;;13.40;99.90;;;;;;5029868;28;19941;-76
2022/09/30 14:26:07;;;;;;;;;;;13.50;99.90;;;;;;5028719;28;19925;-75
2022/09/30 14:28:43;;;;;;;;;;;13.50;99.90;;;;;;5016108;28;19925;-75
2022/09/30 14:31:15;;;;;;;;;;;13.60;99.90;;;;;;5034789;28;19970;-75
2022/09/30 14:33:48;;;;;;;;;;;13.50;99.90;;;;;;5014724;28;19948;-75
2022/09/30 14:36:21;;;;;;;;;;;13.60;99.90;;;;;;5029345;28;19979;-75
2022/09/30 14:38:55;;;;;;;;;;;13.60;99.90;;;;;;5051190;28;20331;-76
2022/09/30 14:41:28;;;;;;;;;;;13.70;99.90;;;;;;5021405;28;19925;-75
2022/09/30 14:44:04;;;;;;;;;;;13.90;99.90;;;;;;5017207;28;19929;-76
2022/09/30 14:46:37;;;;;;;;;;;14.00;99.90;;;;;;5031371;28;19982;-76
2022/09/30 14:49:07;;;;;;;;;;;14.20;99.90;;;;;;5032692;28;20622;-75
2022/09/30 14:51:43;;;;;;;;;;;14.30;99.90;;;;;;5035801;28;19978;-75
2022/09/30 14:54:19;;;;;;;;;;;14.40;99.90;;;;;;5026701;28;20288;-75
2022/09/30 14:56:53;;;;;;;;;;;14.50;99.90;;;;;;5025741;28;19925;-74
2022/09/30 14:59:26;;;;;;;;;;;14.40;99.90;;;;;;5040360;28;20339;-74
2022/09/30 15:02:02;;;;;;;;;;;14.30;99.90;;;;;;5041104;28;19979;-73
2022/09/30 15:04:31;;;;;;;;;;;14.00;99.90;;;;;;5046331;28;20363;-76
2022/09/30 15:07:05;;;;;;;;;;;13.70;99.90;;;;;;5023004;28;19925;-75
2022/09/30 15:09:38;;;;;;;;;;;13.50;99.90;;;;;;5016874;28;19925;-75
2022/09/30 15:12:06;;;;;;;;;;;13.40;99.90;;;;;;5026429;28;20403;-75
2022/09/30 15:14:32;;;;;;;;;;;13.30;99.90;;;;;;5017680;28;19928;-73